Time;durP1;ratioP1;P1;durP2;ratioP2;P2;SDS_P1;SDS_P2;PMS_P1;PMS_P2;Temp;Humidity;BMP_temperature;BMP_pressure;BME280_temperature;BME280_humidity;BME280_pressure;Samples;Min_cycle;Max_cycle;Signal;HPM_P1;HPM_P2
2023/01/02 00:06:08;;;;;;;3.03;2.50;;;;;;;13.13;55.54;96946.59;6183240;23;20017;-85
2023/01/02 00:09:12;;;;;;;4.20;2.50;;;;;;;13.12;54.98;96938.97;6185581;23;20037;-86
2023/01/02 00:12:07;;;;;;;3.30;2.20;;;;;;;13.09;54.89;96945.34;6185597;23;20053;-85
2023/01/02 00:17:47;;;;;;;5.55;2.90;;;;;;;13.07;55.08;96926.41;6185560;23;20006;-85
2023/01/02 00:20:32;;;;;;;2.58;2.25;;;;;;;13.07;55.24;96925.59;6185601;23;20041;-84
2023/01/02 00:32:38;;;;;;;2.70;2.10;;;;;;;12.78;55.71;96891.53;6185532;23;20020;-85
2023/01/02 00:38:21;;;;;;;2.72;1.98;;;;;;;12.68;56.26;96890.22;6185174;23;20021;-86
2023/01/02 00:41:15;;;;;;;7.10;2.50;;;;;;;12.64;56.34;96899.44;6208177;23;20009;-85
2023/01/02 00:47:40;;;;;;;3.95;1.88;;;;;;;12.58;55.99;96880.06;6183818;23;20073;-86
2023/01/02 01:49:27;;;;;;;4.55;2.80;;;;;;;12.78;56.67;96886.28;6201637;23;20039;-84
2023/01/02 01:52:02;;;;;;;5.10;2.83;;;;;;;12.76;56.64;96893.50;6191673;23;20018;-83
2023/01/02 01:54:37;;;;;;;5.00;3.08;;;;;;;12.76;57.66;96890.91;6185188;23;20005;-84
2023/01/02 01:57:18;;;;;;;5.35;3.33;;;;;;;12.73;56.93;96891.28;6184773;23;20086;-82
2023/01/02 05:01:02;;;;;;;2.40;1.05;;;;;;;12.71;52.83;96817.38;6200550;23;20025;-83
2023/01/02 05:04:01;;;;;;;3.97;1.83;;;;;;;12.76;53.60;96801.09;6185271;23;20064;-83
2023/01/02 05:51:19;;;;;;;3.03;1.90;;;;;;;12.80;51.52;96825.09;6203727;23;20014;-83
2023/01/02 06:50:00;;;;;;;2.72;1.73;;;;;;;12.55;52.46;96843.78;6106325;23;20029;-79
2023/01/02 06:52:29;;;;;;;2.33;1.73;;;;;;;12.58;52.05;96843.44;6156533;23;20024;-79
2023/01/02 06:54:57;;;;;;;4.38;2.40;;;;;;;12.61;51.51;96850.91;6156355;23;20025;-79
2023/01/02 08:53:35;;;;;;;5.18;2.58;;;;;;;13.38;49.24;96940.97;6134900;23;20021;-82
2023/01/02 09:01:28;;;;;;;5.25;3.15;;;;;;;13.47;52.53;96955.56;6159012;23;20029;-82
2023/01/02 09:04:01;;;;;;;7.82;3.50;;;;;;;13.51;53.42;96953.34;6155511;23;20033;-82
2023/01/02 09:06:44;;;;;;;5.60;4.18;;;;;;;13.52;51.38;96950.56;6154837;23;20029;-82
2023/01/02 09:09:28;;;;;;;;;;;;;;;13.54;51.36;96959.03;6156110;23;20010;-83
2023/01/02 09:15:11;;;;;;;8.20;4.10;;;;;;;13.48;51.35;96957.19;6155578;23;20061;-82
2023/01/02 09:17:45;;;;;;;8.68;4.30;;;;;;;13.49;52.96;96957.97;6155533;23;20010;-81
2023/01/02 09:28:18;;;;;;;5.25;2.90;;;;;;;13.53;52.42;96962.66;6175424;23;20008;-79
2023/01/02 09:38:51;;;;;;;5.40;2.83;;;;;;;13.59;51.24;96967.13;6144955;23;20032;-80
2023/01/02 10:11:36;;;;;;;9.38;4.97;;;;;;;13.28;52.66;96980.63;6140380;23;20041;-83
2023/01/02 10:16:53;;;;;;;10.82;5.43;;;;;;;13.26;55.27;96979.16;6174886;23;20036;-81
2023/01/02 10:19:42;;;;;;;47.63;20.80;;;;;;;13.27;53.33;96975.53;6184860;23;20017;-81
2023/01/02 10:41:37;;;;;;;7.82;4.63;;;;;;;13.27;53.93;96993.84;6184804;23;20040;-83
2023/01/02 10:44:13;;;;;;;9.85;5.25;;;;;;;13.29;53.09;96991.91;6168730;23;20028;-83
2023/01/02 10:46:42;;;;;;;10.70;5.68;;;;;;;13.35;55.26;96991.16;6193180;23;20033;-80
2023/01/02 10:49:15;;;;;;;9.70;5.65;;;;;;;13.38;54.14;96982.91;6193191;23;20009;-80
2023/01/02 10:51:47;;;;;;;8.40;4.82;;;;;;;13.44;55.17;97000.47;6192132;23;20012;-81
2023/01/02 10:54:17;;;;;;;6.97;4.55;;;;;;;13.52;55.67;96997.72;6191874;23;20060;-81
2023/01/02 10:56:53;;;;;;;7.00;5.00;;;;;;;13.57;54.09;96990.09;6191297;23;20028;-81
2023/01/02 10:59:31;;;;;;;11.02;5.85;;;;;;;13.63;54.09;96992.97;6190911;23;20009;-80
2023/01/02 11:02:00;;;;;;;9.88;6.57;;;;;;;13.71;55.95;96990.19;6191244;23;20016;-80
2023/01/02 11:04:47;;;;;;;7.35;6.05;;;;;;;13.80;58.94;96991.69;6191367;23;20040;-80
2023/01/02 11:07:24;;;;;;;8.10;5.40;;;;;;;13.92;57.77;97002.44;6190775;23;20061;-80
2023/01/02 11:12:46;;;;;;;8.73;5.05;;;;;;;14.08;57.75;97003.91;6180965;23;20032;-79
2023/01/02 11:17:55;;;;;;;12.05;6.70;;;;;;;14.23;54.71;97007.22;6186481;23;20020;-80
2023/01/02 13:31:21;;;;;;;4.07;1.65;;;;;;;17.77;42.96;96994.16;6141664;23;20009;-82
2023/01/02 13:42:57;;;;;;;7.82;2.13;;;;;;;17.56;43.64;97008.53;6174608;23;20020;-81
2023/01/02 13:45:00;;;;;;;6.68;2.30;;;;;;;17.46;44.71;97014.31;6178645;23;20025;-79
2023/01/02 13:47:53;;;;;;;5.75;2.00;;;;;;;17.35;45.39;97002.63;6171911;23;20025;-80
2023/01/02 13:51:23;;;;;;;7.50;2.42;;;;;;;17.24;46.59;97012.03;6174999;23;20073;-81
2023/01/02 13:54:41;;;;;;;6.60;1.95;;;;;;;17.09;44.01;97012.34;6173472;23;20485;-80
2023/01/02 13:58:09;;;;;;;8.50;2.10;;;;;;;16.99;45.01;97013.81;6178878;23;20026;-80
2023/01/02 14:00:55;;;;;;;7.15;2.00;;;;;;;16.87;45.32;97017.13;6125894;23;20017;-80
2023/01/02 14:03:49;;;;;;;5.50;2.28;;;;;;;16.80;47.11;97020.84;6177019;23;20021;-81
2023/01/02 14:06:58;;;;;;;4.72;1.70;;;;;;;16.72;44.83;97029.75;6175624;23;20022;-80
2023/01/02 14:13:04;;;;;;;5.82;1.88;;;;;;;16.59;42.95;97048.25;6171921;23;20021;-80
2023/01/02 14:15:42;;;;;;;5.32;2.17;;;;;;;16.53;46.48;97049.06;6150481;23;20077;-80
2023/01/02 14:18:32;;;;;;;6.65;2.13;;;;;;;16.46;44.83;97052.56;6172777;23;20022;-81
2023/01/02 15:32:22;;;;;;;10.55;3.45;;;;;;;14.78;53.62;97128.88;6201985;23;20084;-80
2023/01/02 16:00:08;;;;;;;16.17;6.68;;;;;;;14.24;53.80;97186.50;6179336;23;20057;-79
2023/01/02 16:02:45;;;;;;;14.02;6.13;;;;;;;14.22;54.72;97184.84;6177704;23;20018;-81
2023/01/02 16:05:52;;;;;;;14.07;5.22;;;;;;;14.23;53.82;97183.03;6128058;23;20374;-81
2023/01/02 16:25:41;;;;;;;9.27;3.50;;;;;;;14.19;55.87;97218.50;6114780;23;20025;-80
2023/01/02 16:28:24;;;;;;;15.15;3.65;;;;;;;14.20;56.57;97228.03;6119529;23;20014;-80
2023/01/02 16:31:08;;;;;;;10.15;2.88;;;;;;;14.21;54.61;97227.84;6118347;23;20030;-80
2023/01/02 16:33:37;;;;;;;7.07;2.80;;;;;;;14.22;54.45;97242.56;6117129;23;20026;-80
2023/01/02 16:36:43;;;;;;;7.00;3.08;;;;;;;14.20;54.83;97247.19;6118236;23;20068;-80
2023/01/02 16:39:58;;;;;;;6.28;2.40;;;;;;;14.21;55.39;97263.75;6124454;23;20022;-81
2023/01/02 16:42:51;;;;;;;11.90;3.20;;;;;;;14.20;56.30;97262.94;6119416;23;20025;-80
2023/01/02 16:45:41;;;;;;;8.45;2.85;;;;;;;14.17;55.72;97265.16;6124149;23;20018;-81
2023/01/02 16:48:19;;;;;;;9.27;2.90;;;;;;;14.13;56.68;97267.31;6121102;23;20034;-80
2023/01/02 16:50:53;;;;;;;5.43;2.85;;;;;;;14.14;57.14;97268.13;6096311;23;20038;-80
2023/01/02 16:53:29;;;;;;;7.10;3.08;;;;;;;14.12;58.13;97265.69;6119823;23;20034;-81
2023/01/02 16:56:00;;;;;;;7.05;3.30;;;;;;;14.10;57.26;97264.25;6120634;23;20018;-81
2023/01/02 16:58:37;;;;;;;5.80;3.10;;;;;;;14.10;58.41;97266.88;6118562;23;20025;-81
2023/01/02 17:01:12;;;;;;;6.55;3.63;;;;;;;14.09;57.39;97270.50;6175674;23;20025;-81
2023/01/02 17:03:44;;;;;;;11.35;3.22;;;;;;;14.09;57.22;97271.31;6183456;23;20014;-81
2023/01/02 17:06:18;;;;;;;7.25;2.78;;;;;;;14.11;57.03;97268.50;6175409;23;20022;-81
2023/01/02 17:08:55;;;;;;;11.68;3.03;;;;;;;14.11;56.86;97265.88;6154197;23;20081;-81
2023/01/02 17:11:58;;;;;;;6.32;2.70;;;;;;;14.11;58.23;97258.03;6171632;23;20025;-80
2023/01/02 17:14:41;;;;;;;3.65;2.13;;;;;;;14.11;59.21;97261.44;6181901;23;20072;-81
2023/01/02 17:17:26;;;;;;;5.20;2.78;;;;;;;14.10;57.69;97262.47;6154931;23;20017;-80
2023/01/02 17:20:03;;;;;;;7.53;3.15;;;;;;;14.09;58.93;97252.94;6177744;23;20028;-80
2023/01/02 17:22:40;;;;;;;11.25;3.83;;;;;;;14.06;57.26;97260.38;6177828;23;20029;-80
2023/01/02 17:25:23;;;;;;;6.65;3.38;;;;;;;14.02;59.44;97259.97;6182065;23;20005;-82
2023/01/02 17:28:20;;;;;;;9.93;3.90;;;;;;;14.02;58.91;97271.25;6158731;23;20022;-80
2023/01/02 17:30:59;;;;;;;13.68;4.22;;;;;;;14.00;57.80;97277.69;6180607;23;20021;-81
2023/01/02 17:33:39;;;;;;;11.65;4.30;;;;;;;13.98;60.33;97280.50;6183027;23;20006;-81
2023/01/02 17:36:13;;;;;;;11.55;3.50;;;;;;;13.99;58.80;97284.75;6182710;23;20017;-83
2023/01/02 17:38:48;;;;;;;12.32;3.28;;;;;;;13.98;57.72;97283.13;6179490;23;20053;-80
2023/01/02 17:41:21;;;;;;;8.35;3.50;;;;;;;13.96;59.67;97298.22;6178532;23;20028;-81
2023/01/02 17:44:04;;;;;;;10.50;3.08;;;;;;;13.94;57.83;97292.34;6179850;23;20009;-81
2023/01/02 17:46:37;;;;;;;5.63;1.80;;;;;;;13.93;56.66;97300.44;6181902;23;20021;-81
2023/01/02 17:55:27;;;;;;;4.93;2.17;;;;;;;13.92;56.60;97311.91;6171917;23;20005;-81
2023/01/02 18:49:47;;;;;;;10.18;2.45;;;;;;;13.75;59.21;97371.59;6141463;23;20013;-81
2023/01/02 19:14:22;;;;;;;3.83;1.77;;;;;;;13.68;60.78;97394.31;6138207;23;20010;-79
2023/01/02 19:17:04;;;;;;;4.40;2.38;;;;;;;13.67;60.54;97387.47;6135596;23;20053;-80
2023/01/02 19:19:32;;;;;;;5.00;2.03;;;;;;;13.66;60.42;97393.69;6140328;23;20026;-80
2023/01/02 19:22:17;;;;;;;5.63;2.13;;;;;;;13.67;61.54;97400.56;6149191;23;20018;-81
2023/01/02 19:24:54;;;;;;;3.20;1.90;;;;;;;13.66;60.89;97391.06;6148555;23;20006;-81
2023/01/02 19:27:35;;;;;;;4.82;1.80;;;;;;;13.65;61.29;97405.19;6141751;23;20525;-80
2023/01/02 19:30:24;;;;;;;6.80;2.00;;;;;;;13.67;62.91;97408.44;6144641;23;20025;-80
2023/01/02 19:32:55;;;;;;;10.98;2.72;;;;;;;13.66;61.03;97412.84;6149616;23;20022;-86
2023/01/02 19:35:55;;;;;;;5.60;2.75;;;;;;;13.66;61.84;97422.50;6134770;23;20096;-83
2023/01/02 19:38:26;;;;;;;5.07;2.00;;;;;;;13.63;60.34;97430.75;6137582;23;20038;-88
2023/01/02 19:40:55;;;;;;;3.53;1.50;;;;;;;13.56;60.61;97423.59;6137829;23;20074;-88
2023/01/02 19:43:23;;;;;;;1.75;0.88;;;;;;;13.52;60.79;97427.56;6135755;23;20430;-78
2023/01/02 19:45:52;;;;;;;3.00;0.90;;;;;;;13.47;60.83;97435.19;6136687;23;20225;-78
2023/01/02 19:48:20;;;;;;;1.48;0.77;;;;;;;13.42;60.78;97432.25;6134462;23;20405;-78
2023/01/02 19:50:48;;;;;;;1.95;1.00;;;;;;;13.39;60.90;97448.34;6134438;23;20414;-80
2023/01/02 19:53:15;;;;;;;3.75;1.00;;;;;;;13.35;60.68;97458.38;6134432;23;20056;-78
2023/01/02 19:55:43;;;;;;;1.08;0.90;;;;;;;13.30;60.55;97447.63;6133345;23;20026;-75
2023/01/02 19:58:11;;;;;;;3.03;0.73;;;;;;;13.28;60.73;97464.47;6132746;23;20164;-78
2023/01/02 20:00:38;;;;;;;0.55;0.40;;;;;;;13.22;60.63;97458.13;6133433;23;20022;-78
2023/01/02 20:03:08;;;;;;;1.13;0.30;;;;;;;13.18;60.74;97462.94;6134184;23;20022;-79
2023/01/02 20:05:35;;;;;;;1.20;0.50;;;;;;;13.15;60.36;97476.34;6134479;23;20049;-82
2023/01/02 20:08:03;;;;;;;0.47;0.30;;;;;;;13.11;60.12;97472.47;6133648;23;20028;-79
2023/01/02 20:10:30;;;;;;;0.93;0.40;;;;;;;13.08;60.19;97475.44;6133401;23;20565;-77
2023/01/02 20:12:58;;;;;;;1.00;0.25;;;;;;;13.06;61.00;97485.28;6132225;23;20467;-78
2023/01/02 20:15:27;;;;;;;0.40;0.30;;;;;;;13.05;60.60;97483.63;6131325;23;20025;-78
2023/01/02 20:17:55;;;;;;;0.30;0.20;;;;;;;13.03;60.16;97483.03;6134593;23;20018;-80
2023/01/02 20:20:28;;;;;;;0.75;0.30;;;;;;;12.99;59.51;97490.41;6138772;23;20410;-82
2023/01/02 20:22:56;;;;;;;0.40;0.30;;;;;;;12.97;59.16;97491.56;6136340;23;20022;-77
2023/01/02 20:25:25;;;;;;;0.40;0.28;;;;;;;12.95;59.21;97496.16;6133965;23;20022;-78
2023/01/02 20:27:54;;;;;;;0.40;0.20;;;;;;;12.92;59.92;97514.84;6133640;23;20033;-78
2023/01/02 20:30:23;;;;;;;0.10;0.10;;;;;;;12.89;59.30;97512.56;6132752;23;20023;-76
2023/01/02 20:32:51;;;;;;;0.43;0.00;;;;;;;12.81;59.70;97515.22;6131927;23;20029;-80
2023/01/02 20:35:19;;;;;;;0.20;0.10;;;;;;;12.75;59.76;97507.09;6132775;23;20018;-79
2023/01/02 20:37:48;;;;;;;2.50;0.22;;;;;;;12.71;59.99;97507.63;6138443;23;20041;-79
2023/01/02 20:40:15;;;;;;;1.23;0.10;;;;;;;12.69;58.90;97523.50;6139376;23;20026;-77
2023/01/02 20:42:43;;;;;;;0.13;0.13;;;;;;;12.65;58.76;97521.38;6133281;23;20024;-77
2023/01/02 20:45:11;;;;;;;0.38;0.30;;;;;;;12.61;59.03;97527.94;6132131;23;20026;-77
2023/01/02 20:47:39;;;;;;;1.05;0.40;;;;;;;12.56;59.81;97526.66;6132339;23;20504;-78
2023/01/02 20:50:07;;;;;;;0.77;0.35;;;;;;;12.55;60.49;97535.50;6131528;23;20025;-77
2023/01/02 20:52:35;;;;;;;2.33;0.38;;;;;;;12.50;58.80;97534.38;6131366;23;20466;-77
2023/01/02 20:55:04;;;;;;;0.43;0.20;;;;;;;12.48;59.97;97533.72;6132152;23;20024;-77
2023/01/02 20:57:32;;;;;;;0.75;0.30;;;;;;;12.45;58.81;97539.31;6132191;23;20118;-77
2023/01/02 21:00:00;;;;;;;1.15;0.30;;;;;;;12.43;59.42;97551.75;6131676;23;20100;-77
2023/01/02 21:02:27;;;;;;;0.65;0.30;;;;;;;12.44;59.97;97559.44;6133371;23;20029;-78
2023/01/02 21:04:55;;;;;;;0.32;0.30;;;;;;;12.45;60.10;97560.25;6133269;23;20014;-76
2023/01/02 21:07:23;;;;;;;0.17;0.17;;;;;;;12.44;60.06;97563.84;6134518;23;20022;-77
2023/01/02 21:09:50;;;;;;;1.02;0.30;;;;;;;12.42;59.60;97556.19;6136825;23;20442;-77
2023/01/02 21:15:05;;;;;;;0.20;0.20;;;;;;;12.36;59.26;97564.69;6136622;23;20484;-78
2023/01/02 21:17:32;;;;;;;0.50;0.30;;;;;;;12.34;60.49;97566.66;6131058;23;20026;-78
2023/01/02 21:20:00;;;;;;;0.50;0.40;;;;;;;12.32;60.59;97572.06;6130698;23;20021;-78
2023/01/02 21:22:27;;;;;;;0.10;0.10;;;;;;;12.31;60.45;97583.53;6136932;23;20022;-77
2023/01/02 21:24:55;;;;;;;0.13;0.13;;;;;;;12.27;59.99;97584.84;6137732;23;20379;-77
2023/01/02 21:27:24;;;;;;;0.17;0.10;;;;;;;12.24;60.62;97595.63;6136937;23;20025;-78
2023/01/02 21:29:52;;;;;;;0.28;0.28;;;;;;;12.20;60.18;97596.13;6136114;23;20053;-78
2023/01/02 21:32:19;;;;;;;0.13;0.13;;;;;;;12.14;60.53;97600.25;6136934;23;20026;-80
2023/01/02 21:34:47;;;;;;;0.73;0.38;;;;;;;12.08;60.49;97606.13;6135361;23;20018;-78
2023/01/02 21:37:14;;;;;;;1.27;0.60;;;;;;;12.02;61.25;97606.78;6136018;23;20045;-77
2023/01/02 21:39:43;;;;;;;0.47;0.40;;;;;;;12.00;61.32;97598.31;6136373;23;20488;-77
2023/01/02 21:42:17;;;;;;;0.40;0.35;;;;;;;11.98;61.29;97605.50;6137034;23;20110;-79
2023/01/02 21:44:47;;;;;;;0.40;0.30;;;;;;;11.97;62.37;97614.34;6132351;23;20018;-80
2023/01/02 21:47:15;;;;;;;0.20;0.20;;;;;;;11.95;61.75;97611.88;6134242;23;20033;-79
2023/01/02 21:49:43;;;;;;;0.80;0.35;;;;;;;11.94;62.93;97626.75;6134270;23;20026;-78
2023/01/02 21:52:10;;;;;;;2.05;0.85;;;;;;;11.93;62.31;97630.34;6134446;23;20046;-76
2023/01/02 21:54:38;;;;;;;2.83;1.35;;;;;;;11.91;61.68;97634.91;6133933;23;20046;-76
2023/01/02 21:57:06;;;;;;;1.77;0.80;;;;;;;11.89;62.48;97642.09;6133984;23;20037;-77
2023/01/02 21:59:33;;;;;;;0.52;0.52;;;;;;;11.90;62.47;97653.41;6133566;23;20026;-77
2023/01/02 22:02:04;;;;;;;0.40;0.40;;;;;;;11.90;63.74;97656.00;6135430;23;20044;-79
2023/01/02 22:04:32;;;;;;;0.40;0.40;;;;;;;11.89;62.61;97636.88;6132637;23;20026;-77
2023/01/02 22:07:00;;;;;;;0.30;0.30;;;;;;;11.88;62.71;97630.03;6132444;23;20033;-78
2023/01/02 22:09:48;;;;;;;0.38;0.38;;;;;;;11.89;63.86;97629.03;6130972;23;20026;-81
2023/01/02 22:12:15;;;;;;;0.22;0.22;;;;;;;11.88;62.89;97637.88;6131670;23;20022;-78
2023/01/02 22:14:43;;;;;;;0.80;0.60;;;;;;;11.85;63.26;97640.78;6131657;23;20534;-78
2023/01/02 22:17:12;;;;;;;0.43;0.43;;;;;;;11.86;62.87;97641.59;6130709;23;20026;-77
2023/01/02 22:19:39;;;;;;;0.52;0.50;;;;;;;11.83;62.93;97647.97;6130239;23;20026;-79
2023/01/02 22:22:07;;;;;;;0.60;0.30;;;;;;;11.81;62.65;97647.31;6131243;23;20097;-80
2023/01/02 22:24:35;;;;;;;0.40;0.20;;;;;;;11.80;64.02;97653.50;6131398;23;20018;-79
2023/01/02 22:27:13;;;;;;;0.40;0.40;;;;;;;11.79;63.16;97654.50;6130072;23;20104;-77
2023/01/02 22:29:42;;;;;;;2.35;0.60;;;;;;;11.80;63.94;97650.09;6129647;23;20022;-78
2023/01/02 22:32:32;;;;;;;0.50;0.50;;;;;;;11.82;64.32;97655.97;6129063;23;20046;-79
2023/01/02 22:35:01;;;;;;;0.55;0.50;;;;;;;11.82;64.41;97662.00;6128809;23;20489;-77
2023/01/02 22:37:29;;;;;;;0.40;0.20;;;;;;;11.82;64.50;97662.00;6129608;23;20096;-79
2023/01/02 22:39:56;;;;;;;0.50;0.50;;;;;;;11.84;64.42;97662.66;6132513;23;20028;-78
2023/01/02 22:45:33;;;;;;;0.47;0.40;;;;;;;11.81;64.18;97668.22;6130500;23;20049;-77
2023/01/02 22:48:05;;;;;;;2.45;0.52;;;;;;;11.81;65.02;97683.09;6135371;23;20045;-80
2023/01/02 22:50:36;;;;;;;;;;;;;;;11.83;64.96;97687.19;6132132;23;20462;-77
2023/01/02 22:53:09;;;;;;;0.43;0.43;;;;;;;11.81;64.82;97683.09;6135254;23;19991;-77
2023/01/02 22:55:36;;;;;;;0.85;0.60;;;;;;;11.80;64.48;97682.25;6131087;23;20318;-77
2023/01/02 22:58:05;;;;;;;2.13;1.10;;;;;;;11.79;65.81;97682.44;6130600;23;20037;-77
2023/01/02 23:00:33;;;;;;;3.30;1.60;;;;;;;11.78;64.57;97694.69;6131499;23;20057;-78
2023/01/02 23:03:02;;;;;;;2.88;1.52;;;;;;;11.77;64.86;97682.59;6135440;23;20014;-80
2023/01/02 23:05:29;;;;;;;4.13;2.05;;;;;;;11.76;64.96;97680.94;6136757;23;20324;-78
2023/01/02 23:07:57;;;;;;;0.60;0.60;;;;;;;11.76;65.31;97683.56;6135738;23;20028;-75
2023/01/02 23:10:24;;;;;;;1.65;0.40;;;;;;;11.75;64.24;97681.94;6136495;23;20042;-78
2023/01/02 23:12:52;;;;;;;0.65;0.50;;;;;;;11.75;64.73;97695.03;6135238;23;20053;-81
2023/01/02 23:15:20;;;;;;;0.55;0.55;;;;;;;11.76;65.91;97696.63;6136488;23;20022;-79
2023/01/02 23:20:34;;;;;;;0.60;0.60;;;;;;;11.77;65.70;97703.50;6134730;23;20022;-79
2023/01/02 23:23:01;;;;;;;0.75;0.73;;;;;;;11.77;65.37;97703.50;6135755;23;20077;-77
2023/01/02 23:25:29;;;;;;;0.77;0.63;;;;;;;11.76;65.51;97707.09;6135956;23;20025;-77
2023/01/02 23:27:56;;;;;;;0.80;0.80;;;;;;;11.77;65.99;97713.97;6135831;23;20025;-80
2023/01/02 23:30:24;;;;;;;0.52;0.52;;;;;;;11.77;65.30;97713.97;6136823;23;20021;-77
2023/01/02 23:32:51;;;;;;;2.15;0.80;;;;;;;11.75;65.74;97695.81;6136453;23;20028;-77
2023/01/02 23:35:19;;;;;;;0.93;0.70;;;;;;;11.74;64.63;97695.97;6138426;23;20106;-79
2023/01/02 23:37:48;;;;;;;1.17;0.90;;;;;;;11.73;65.68;97702.19;6136857;23;20017;-77
2023/01/02 23:40:15;;;;;;;0.68;0.68;;;;;;;11.71;65.18;97689.28;6138170;23;20025;-78
2023/01/02 23:42:43;;;;;;;1.20;1.00;;;;;;;11.70;65.84;97685.06;6136783;23;20052;-77
2023/01/02 23:45:11;;;;;;;2.05;0.90;;;;;;;11.71;66.43;97675.41;6136615;23;20097;-78
2023/01/02 23:47:38;;;;;;;0.90;0.90;;;;;;;11.72;65.96;97679.66;6137483;23;20053;-78
2023/01/02 23:50:06;;;;;;;1.05;0.80;;;;;;;11.70;65.67;97677.22;6136729;23;20069;-77
2023/01/02 23:52:34;;;;;;;1.92;1.00;;;;;;;11.70;65.97;97684.25;6137061;23;20060;-77
2023/01/02 23:55:03;;;;;;;0.90;0.90;;;;;;;11.69;65.01;97690.44;6137918;23;20422;-78
2023/01/02 23:57:30;;;;;;;1.67;1.10;;;;;;;11.68;65.93;97697.47;6138186;23;20028;-78
2023/01/02 23:59:58;;;;;;;0.82;0.82;;;;;;;11.68;65.16;97701.88;6137392;23;20014;-78
